Time;durP1;ratioP1;P1;durP2;ratioP2;P2;SDS_P1;SDS_P2;PMS_P1;PMS_P2;Temp;Humidity;BMP_temperature;BMP_pressure;BME280_temperature;BME280_humidity;BME280_pressure;Samples;Min_cycle;Max_cycle;Signal;HPM_P1;HPM_P2
2022/05/14 00:00:17;;;;;;;17.63;4.97;;;11.50;99.90;;;;;;5034784;28;20046;-57
2022/05/14 00:02:45;;;;;;;14.30;4.82;;;11.80;99.90;;;;;;5034882;28;20045;-57
2022/05/14 00:05:11;;;;;;;14.05;4.93;;;;;;;;;;5032333;28;20455;-57
2022/05/14 00:07:38;;;;;;;14.05;4.90;;;;;;;;;;5034620;28;20050;-57
2022/05/14 00:10:05;;;;;;;17.48;4.88;;;11.70;99.90;;;;;;5034605;28;20495;-57
2022/05/14 00:15:15;;;;;;;16.10;5.10;;;;;;;;;;5034407;28;20041;-57
2022/05/14 00:17:41;;;;;;;13.93;4.35;;;11.50;99.90;;;;;;5034188;28;20496;-57
2022/05/14 00:20:09;;;;;;;12.18;4.18;;;11.60;99.90;;;;;;5034236;28;20045;-57
2022/05/14 00:22:34;;;;;;;12.13;4.38;;;11.60;99.90;;;;;;5034288;28;20381;-57
2022/05/14 00:25:00;;;;;;;16.10;5.20;;;11.50;99.90;;;;;;5033014;28;20076;-57
2022/05/14 00:27:27;;;;;;;10.93;4.30;;;11.50;99.90;;;;;;5034551;28;20057;-57
2022/05/14 00:29:53;;;;;;;13.07;4.40;;;;;;;;;;5034701;28;20045;-57
2022/05/14 00:32:18;;;;;;;12.30;4.43;;;11.60;99.90;;;;;;5034222;28;20041;-57
2022/05/14 00:34:45;;;;;;;13.48;4.63;;;11.50;99.90;;;;;;5033811;28;20095;-57
2022/05/14 00:37:10;;;;;;;12.40;4.72;;;11.50;99.90;;;;;;5033992;28;20124;-57
2022/05/14 00:39:36;;;;;;;10.45;4.35;;;11.30;99.90;;;;;;5033932;28;20392;-57
2022/05/14 00:42:02;;;;;;;10.75;4.28;;;;;;;;;;5033715;28;20368;-57
2022/05/14 00:44:27;;;;;;;14.82;4.90;;;11.50;99.90;;;;;;5033614;28;20046;-57
2022/05/14 00:47:04;;;;;;;14.85;4.22;;;11.50;99.90;;;;;;5033512;28;20047;-57
2022/05/14 00:49:33;;;;;;;12.77;4.30;;;11.30;99.90;;;;;;5033562;28;20052;-57
2022/05/14 00:52:00;;;;;;;12.10;4.55;;;11.40;99.90;;;;;;5034119;28;20041;-57
2022/05/14 00:54:32;;;;;;;12.98;4.60;;;11.50;99.90;;;;;;5033465;28;20134;-57
2022/05/14 00:57:05;;;;;;;13.70;4.30;;;11.00;99.90;;;;;;5033549;28;20633;-57
2022/05/14 00:59:30;;;;;;;13.48;4.65;;;11.50;99.90;;;;;;5032959;28;20148;-59
2022/05/14 01:01:58;;;;;;;12.98;4.35;;;11.50;99.90;;;;;;5029854;28;20548;-58
2022/05/14 01:04:24;;;;;;;12.10;4.10;;;11.50;99.90;;;;;;5031957;28;20056;-59
2022/05/14 01:06:57;;;;;;;12.32;4.00;;;11.90;99.90;;;;;;5031369;28;20049;-58
2022/05/14 01:09:23;;;;;;;13.27;4.68;;;11.40;99.90;;;;;;5031897;28;20122;-58
2022/05/14 01:11:50;;;;;;;11.25;4.32;;;11.50;99.90;;;;;;5032518;28;20094;-58
2022/05/14 01:14:16;;;;;;;11.63;4.53;;;11.50;99.90;;;;;;5032563;28;20120;-58
2022/05/14 01:16:42;;;;;;;12.95;4.60;;;;;;;;;;5030611;28;20124;-58
2022/05/14 01:19:10;;;;;;;16.50;4.55;;;11.50;99.90;;;;;;5032215;28;20127;-59
2022/05/14 01:22:03;;;;;;;13.00;4.38;;;11.60;99.90;;;;;;5030671;28;20069;-59
2022/05/14 01:27:56;;;;;;;14.73;4.60;;;10.10;99.90;;;;;;5024243;28;20087;-58
2022/05/14 01:30:22;;;;;;;17.20;5.00;;;11.50;99.90;;;;;;5032201;28;20061;-58
2022/05/14 01:33:04;;;;;;;12.32;3.97;;;11.60;99.90;;;;;;5030839;28;20449;-59
2022/05/14 01:35:31;;;;;;;12.73;4.28;;;11.60;99.90;;;;;;5032055;28;20087;-58
2022/05/14 01:37:57;;;;;;;12.20;4.13;;;;;;;;;;5032052;28;20095;-58
2022/05/14 01:40:23;;;;;;;19.02;4.18;;;11.60;99.90;;;;;;5031781;28;20442;-58
2022/05/14 01:42:49;;;;;;;12.35;4.10;;;;;;;;;;5031723;28;20082;-59
2022/05/14 01:45:15;;;;;;;12.55;3.80;;;11.60;99.90;;;;;;5031674;28;20073;-59
2022/05/14 01:47:40;;;;;;;10.55;3.80;;;11.60;99.90;;;;;;5031594;28;20153;-58
2022/05/14 01:50:07;;;;;;;12.98;4.03;;;;;;;;;;5032228;28;20476;-59
2022/05/14 01:52:33;;;;;;;14.15;4.07;;;;;;;;;;5031408;28;20153;-59
2022/05/14 01:54:58;;;;;;;15.45;4.10;;;11.70;99.90;;;;;;5031728;28;20073;-58
2022/05/14 01:57:24;;;;;;;13.07;3.97;;;11.70;99.90;;;;;;5031527;28;20419;-59
2022/05/14 01:59:49;;;;;;;12.80;3.92;;;11.60;99.90;;;;;;5063201;28;20477;-58
2022/05/14 02:02:15;;;;;;;13.07;3.97;;;;;;;;;;5031371;28;20057;-58
2022/05/14 02:04:41;;;;;;;15.27;4.03;;;;;;;;;;5031163;28;20049;-58
2022/05/14 02:07:07;;;;;;;17.23;5.00;;;11.70;99.90;;;;;;5030233;28;20128;-58
2022/05/14 02:09:33;;;;;;;12.13;4.00;;;;;;;;;;5030963;28;20164;-58
2022/05/14 02:11:59;;;;;;;15.60;4.15;;;11.70;99.90;;;;;;5031585;28;20461;-58
2022/05/14 02:14:24;;;;;;;16.67;4.45;;;11.70;99.90;;;;;;5030848;28;20116;-59
2022/05/14 02:16:50;;;;;;;15.25;4.70;;;;;;;;;;5031124;28;20041;-58
2022/05/14 02:19:17;;;;;;;14.73;4.47;;;11.70;99.90;;;;;;5031430;28;20092;-59
2022/05/14 02:21:43;;;;;;;17.40;4.60;;;;;;;;;;5029891;28;20049;-58
2022/05/14 02:24:08;;;;;;;14.02;4.80;;;11.80;99.90;;;;;;5046513;28;20040;-59
2022/05/14 02:26:34;;;;;;;14.43;4.55;;;11.70;99.90;;;;;;5030817;28;20045;-58
2022/05/14 02:28:59;;;;;;;13.30;4.82;;;11.70;99.90;;;;;;5029898;28;20034;-58
2022/05/14 02:31:26;;;;;;;16.23;4.65;;;11.60;99.90;;;;;;5029591;28;20053;-57
2022/05/14 02:33:52;;;;;;;19.45;5.05;;;11.40;99.90;;;;;;5031196;28;20404;-57
2022/05/14 02:36:18;;;;;;;22.35;4.80;;;11.70;99.90;;;;;;5030910;28;20042;-57
2022/05/14 02:38:43;;;;;;;17.85;5.13;;;11.80;99.90;;;;;;5030429;28;20048;-57
2022/05/14 02:41:09;;;;;;;16.55;5.00;;;11.60;99.90;;;;;;5031234;28;20033;-57
2022/05/14 02:43:36;;;;;;;14.70;4.50;;;11.60;99.90;;;;;;5031142;28;20045;-57
2022/05/14 02:46:02;;;;;;;18.20;5.13;;;11.70;99.90;;;;;;5029373;28;20053;-57
2022/05/14 02:48:28;;;;;;;15.52;5.07;;;11.60;99.90;;;;;;5030069;28;20083;-57
2022/05/14 02:50:54;;;;;;;13.63;4.65;;;;;;;;;;5031446;28;20041;-57
2022/05/14 02:53:21;;;;;;;17.88;5.05;;;11.10;99.90;;;;;;5031179;28;20080;-57
2022/05/14 02:55:47;;;;;;;13.10;5.13;;;11.70;99.90;;;;;;5030755;28;20616;-57
2022/05/14 02:58:12;;;;;;;17.42;5.20;;;11.40;99.90;;;;;;5030397;28;20120;-57
2022/05/14 03:00:38;;;;;;;18.10;4.80;;;11.50;99.90;;;;;;5030615;28;20087;-57
2022/05/14 03:03:03;;;;;;;15.13;5.00;;;11.50;99.90;;;;;;5029253;28;20057;-57
2022/05/14 03:05:29;;;;;;;14.18;5.18;;;;;;;;;;5030831;28;20053;-57
2022/05/14 03:07:55;;;;;;;17.20;4.97;;;11.10;99.90;;;;;;5030326;28;20511;-57
2022/05/14 03:10:21;;;;;;;18.83;5.55;;;;;;;;;;5030432;28;20104;-57
2022/05/14 03:12:47;;;;;;;15.02;4.85;;;11.30;99.90;;;;;;5030708;28;20041;-57
2022/05/14 03:15:13;;;;;;;15.77;5.28;;;11.20;99.90;;;;;;5030846;28;20041;-57
2022/05/14 03:17:39;;;;;;;15.82;5.35;;;;;;;;;;5030715;28;20485;-57
2022/05/14 03:20:07;;;;;;;22.05;5.53;;;11.00;99.90;;;;;;5045992;28;20049;-57
2022/05/14 03:22:38;;;;;;;16.67;5.30;;;11.20;99.90;;;;;;5030500;28;20124;-57
2022/05/14 03:25:05;;;;;;;17.60;5.45;;;10.90;99.90;;;;;;5030682;28;20042;-57
2022/05/14 03:27:31;;;;;;;17.70;5.47;;;11.20;99.90;;;;;;5030154;28;20049;-57
2022/05/14 03:29:57;;;;;;;14.65;5.68;;;10.80;99.90;;;;;;5029890;28;20044;-57
2022/05/14 03:32:24;;;;;;;17.35;5.88;;;11.20;99.90;;;;;;5030811;28;20092;-57
2022/05/14 03:34:50;;;;;;;16.27;5.38;;;10.70;99.90;;;;;;5030325;28;20038;-57
2022/05/14 03:37:16;;;;;;;20.90;5.90;;;11.10;99.90;;;;;;5030163;28;20056;-57
2022/05/14 03:39:42;;;;;;;14.40;5.60;;;;;;;;;;5031326;28;20050;-57
2022/05/14 03:42:07;;;;;;;19.98;5.97;;;10.60;99.90;;;;;;5034374;28;20045;-57
2022/05/14 03:44:33;;;;;;;15.30;5.60;;;10.60;99.90;;;;;;5032110;28;20098;-57
2022/05/14 03:46:59;;;;;;;18.20;5.93;;;;;;;;;;5034257;28;20123;-57
2022/05/14 03:49:25;;;;;;;17.85;5.53;;;;;;;;;;5033432;28;20061;-57
2022/05/14 03:51:52;;;;;;;16.67;5.80;;;;;;;;;;5034213;28;20049;-57
2022/05/14 03:54:18;;;;;;;15.23;5.65;;;;;;;;;;5034151;28;20111;-57
2022/05/14 03:56:44;;;;;;;18.80;5.78;;;10.00;99.90;;;;;;5033237;28;20042;-57
2022/05/14 03:59:10;;;;;;;17.42;5.82;;;10.50;99.90;;;;;;5033362;28;20045;-57
2022/05/14 04:01:37;;;;;;;13.90;5.53;;;10.60;99.90;;;;;;5033538;28;20045;-57
2022/05/14 04:04:03;;;;;;;16.67;5.82;;;10.50;99.90;;;;;;5033669;28;20084;-57
2022/05/14 04:06:29;;;;;;;17.23;5.88;;;;;;;;;;5032355;28;20508;-57
2022/05/14 04:08:56;;;;;;;18.48;6.03;;;;;;;;;;5033351;28;20124;-57
2022/05/14 04:11:22;;;;;;;16.00;5.18;;;;;;;;;;5033367;28;20056;-57
2022/05/14 04:13:48;;;;;;;18.42;6.22;;;;;;;;;;5048566;28;20043;-58
2022/05/14 04:16:14;;;;;;;18.33;6.07;;;;;;;;;;5033500;28;20041;-57
2022/05/14 04:18:40;;;;;;;17.33;5.82;;;;;;;;;;5033104;28;20099;-57
2022/05/14 04:21:06;;;;;;;18.25;6.28;;;11.30;99.90;;;;;;5033607;28;20344;-57
2022/05/14 04:23:33;;;;;;;14.20;5.53;;;10.70;99.90;;;;;;5033093;28;20037;-57
2022/05/14 04:26:00;;;;;;;17.02;5.85;;;10.80;99.90;;;;;;5032805;28;20091;-57
2022/05/14 04:28:26;;;;;;;18.50;5.95;;;11.00;99.90;;;;;;5032435;28;20060;-58
2022/05/14 04:30:53;;;;;;;14.73;5.85;;;10.90;99.90;;;;;;5033303;28;20419;-57
2022/05/14 04:33:19;;;;;;;14.25;5.80;;;10.90;99.90;;;;;;5033451;28;20038;-57
2022/05/14 04:35:45;;;;;;;14.10;5.50;;;11.20;99.90;;;;;;5031309;28;20041;-57
2022/05/14 04:38:11;;;;;;;17.50;5.20;;;;;;;;;;5032963;28;20110;-57
2022/05/14 04:40:38;;;;;;;15.60;5.32;;;12.70;99.90;;;;;;5032689;28;20048;-57
2022/05/14 04:43:08;;;;;;;14.57;5.10;;;12.30;99.90;;;;;;5032927;28;20108;-57
2022/05/14 04:45:35;;;;;;;15.57;5.32;;;12.50;99.90;;;;;;5032637;28;20073;-57
2022/05/14 04:48:01;;;;;;;15.07;5.10;;;13.20;99.90;;;;;;5031478;28;20095;-57
2022/05/14 04:50:27;;;;;;;11.60;4.82;;;14.10;99.90;;;;;;5048040;28;20037;-57
2022/05/14 04:52:53;;;;;;;15.75;4.90;;;;;;;;;;5031346;28;20056;-57
2022/05/14 04:55:18;;;;;;;13.68;5.22;;;14.70;99.90;;;;;;5032604;28;20041;-57
2022/05/14 04:57:44;;;;;;;13.73;4.78;;;14.80;99.90;;;;;;5032429;28;20170;-57
2022/05/14 05:00:13;;;;;;;15.60;5.10;;;15.50;99.90;;;;;;5032598;28;20037;-57
2022/05/14 05:05:25;;;;;;;14.63;4.72;;;16.40;99.90;;;;;;5032488;28;20044;-57
2022/05/14 05:07:50;;;;;;;17.70;5.00;;;16.80;99.90;;;;;;5032569;28;20091;-57
2022/05/14 05:10:16;;;;;;;9.40;4.40;;;17.70;99.90;;;;;;5032251;28;20422;-57
2022/05/14 05:12:42;;;;;;;11.20;4.32;;;17.50;99.90;;;;;;5032136;28;20365;-57
2022/05/14 05:15:09;;;;;;;17.42;5.05;;;18.40;99.90;;;;;;5031093;28;20056;-57
2022/05/14 05:17:35;;;;;;;17.60;5.53;;;18.50;99.90;;;;;;5032052;28;20069;-57
2022/05/14 05:20:00;;;;;;;11.88;4.90;;;18.80;99.90;;;;;;5032207;28;20508;-57
2022/05/14 05:22:26;;;;;;;16.25;4.82;;;;;;;;;;5032192;28;20025;-57
2022/05/14 05:24:52;;;;;;;14.32;4.70;;;19.30;99.90;;;;;;5032325;28;20436;-57
2022/05/14 05:27:18;;;;;;;14.25;5.00;;;19.70;99.90;;;;;;5032089;28;20045;-57
2022/05/14 05:29:44;;;;;;;15.45;5.20;;;;;;;;;;5031596;28;20042;-57
2022/05/14 05:32:10;;;;;;;17.30;5.47;;;20.20;98.50;;;;;;5030959;28;20551;-57
2022/05/14 05:34:36;;;;;;;16.55;4.72;;;;;;;;;;5031521;28;20079;-57
2022/05/14 05:37:02;;;;;;;18.85;5.30;;;;;;;;;;5031896;28;20049;-57
2022/05/14 05:39:28;;;;;;;19.77;4.95;;;;;;;;;;5031420;28;20041;-57
2022/05/14 05:41:56;;;;;;;14.07;5.00;;;21.70;92.50;;;;;;5031774;28;20124;-57
2022/05/14 05:44:22;;;;;;;19.70;5.30;;;22.20;91.30;;;;;;5031939;28;20037;-57
2022/05/14 05:46:48;;;;;;;16.60;5.38;;;22.50;90.00;;;;;;5031933;28;20063;-57
2022/05/14 05:49:13;;;;;;;19.75;5.35;;;22.80;87.80;;;;;;5031594;28;20038;-57
2022/05/14 05:51:39;;;;;;;15.43;5.13;;;23.50;85.30;;;;;;5031443;28;20068;-57
2022/05/14 05:56:57;;;;;;;16.92;5.05;;;24.00;82.20;;;;;;5031108;28;20037;-57
2022/05/14 05:59:25;;;;;;;14.68;5.07;;;24.70;81.50;;;;;;5031220;28;20049;-57
2022/05/14 06:01:52;;;;;;;21.83;5.53;;;24.20;80.30;;;;;;5031020;28;20063;-57
2022/05/14 06:04:18;;;;;;;22.23;5.38;;;;;;;;;;5030834;28;20049;-57
2022/05/14 06:06:44;;;;;;;18.63;5.40;;;24.70;77.30;;;;;;5029953;28;20128;-57
2022/05/14 06:09:17;;;;;;;16.95;5.53;;;24.40;76.00;;;;;;5031301;28;20120;-57
2022/05/14 06:11:44;;;;;;;17.83;5.68;;;25.40;75.00;;;;;;5030815;28;20049;-57
2022/05/14 06:14:10;;;;;;;14.55;5.05;;;25.70;72.70;;;;;;5029919;28;20476;-57
2022/05/14 06:16:36;;;;;;;17.42;5.10;;;25.90;72.00;;;;;;5031137;28;20037;-57
2022/05/14 06:19:02;;;;;;;19.73;5.78;;;;;;;;;;5031322;28;20086;-57
2022/05/14 06:21:28;;;;;;;18.35;5.68;;;26.60;71.00;;;;;;5031173;28;20377;-57
2022/05/14 06:23:54;;;;;;;21.15;5.50;;;26.10;57.70;;;;;;5030586;28;20038;-57
2022/05/14 06:26:21;;;;;;;18.60;5.50;;;;;;;;;;5030905;28;20045;-57
2022/05/14 06:28:46;;;;;;;22.05;5.68;;;27.10;68.20;;;;;;5030773;28;20037;-57
2022/05/14 06:31:12;;;;;;;19.83;5.80;;;27.10;66.00;;;;;;5031271;28;20516;-57
2022/05/14 06:33:38;;;;;;;19.10;5.70;;;28.40;65.70;;;;;;5030492;28;20169;-57
2022/05/14 06:36:04;;;;;;;15.05;5.53;;;28.10;65.30;;;;;;5031058;28;20042;-57
2022/05/14 06:38:30;;;;;;;18.83;5.70;;;27.70;63.60;;;;;;5030753;28;20120;-57
2022/05/14 06:40:55;;;;;;;19.70;5.72;;;27.60;63.60;;;;;;5030856;28;20041;-57
2022/05/14 06:43:21;;;;;;;13.23;5.38;;;27.50;65.10;;;;;;5030662;28;20134;-57
2022/05/14 06:45:47;;;;;;;22.08;5.72;;;;;;;;;;5030754;28;20045;-57
2022/05/14 06:48:13;;;;;;;19.45;5.60;;;;;;;;;;5030773;28;20045;-57
2022/05/14 06:50:45;;;;;;;24.05;6.35;;;24.90;69.20;;;;;;5030836;28;20041;-57
2022/05/14 06:53:13;;;;;;;20.85;6.15;;;25.60;70.00;;;;;;5030550;28;20516;-57
2022/05/14 06:55:41;;;;;;;18.67;5.78;;;25.20;70.10;;;;;;5030378;28;20061;-57
2022/05/14 06:58:10;;;;;;;22.45;6.05;;;25.00;70.70;;;;;;5030721;28;20393;-57
2022/05/14 07:00:36;;;;;;;24.92;6.43;;;25.40;71.30;;;;;;5030810;28;20083;-57
2022/05/14 07:08:31;;;;;;;17.20;5.70;;;26.70;67.50;;;;;;5030639;28;20451;-57
2022/05/14 07:10:57;;;;;;;17.33;6.40;;;26.40;66.60;;;;;;5030204;28;20041;-57
2022/05/14 07:13:23;;;;;;;18.13;6.22;;;;;;;;;;5030452;28;20037;-57
2022/05/14 07:15:48;;;;;;;18.50;6.10;;;26.80;65.90;;;;;;5033620;28;20048;-58
2022/05/14 07:18:14;;;;;;;17.58;5.93;;;26.20;65.30;;;;;;5034058;28;20053;-57
2022/05/14 07:20:40;;;;;;;21.60;6.22;;;26.40;65.60;;;;;;5049112;28;20073;-58
2022/05/14 07:23:05;;;;;;;20.15;6.50;;;26.20;66.40;;;;;;5034222;28;20059;-58
2022/05/14 07:25:32;;;;;;;21.77;6.30;;;26.40;66.90;;;;;;5034118;28;20438;-58
2022/05/14 07:27:58;;;;;;;21.65;6.47;;;;;;;;;;5025833;28;20405;-58
2022/05/14 07:30:24;;;;;;;24.20;6.93;;;26.40;60.50;;;;;;5027772;28;20499;-58
2022/05/14 07:32:51;;;;;;;22.63;6.13;;;26.70;69.10;;;;;;5033320;28;20507;-58
2022/05/14 07:35:17;;;;;;;18.60;5.95;;;25.70;69.50;;;;;;5033241;28;20322;-58
2022/05/14 07:37:47;;;;;;;22.55;6.57;;;25.60;70.70;;;;;;5033023;28;20041;-58
2022/05/14 07:40:16;;;;;;;23.17;6.55;;;25.40;70.20;;;;;;5032873;28;20057;-58
2022/05/14 07:42:53;;;;;;;26.27;6.85;;;25.70;70.90;;;;;;5032664;28;20037;-58
2022/05/14 07:45:24;;;;;;;28.10;6.50;;;25.10;56.20;;;;;;5034092;28;20499;-58
2022/05/14 07:47:52;;;;;;;20.27;6.20;;;25.00;56.40;;;;;;5033189;28;20068;-58
2022/05/14 07:50:17;;;;;;;18.25;6.10;;;25.00;64.20;;;;;;5048854;28;20042;-58
2022/05/14 07:52:43;;;;;;;21.75;5.95;;;25.20;71.20;;;;;;5033066;28;20034;-58
2022/05/14 07:55:09;;;;;;;23.30;6.65;;;;;;;;;;5033256;28;21080;-58
2022/05/14 07:57:35;;;;;;;19.85;6.32;;;25.50;69.90;;;;;;5026490;28;20046;-58
2022/05/14 08:00:02;;;;;;;25.50;6.43;;;25.50;69.60;;;;;;5013652;28;20131;-57
2022/05/14 08:02:32;;;;;;;23.27;6.22;;;25.50;55.60;;;;;;5013724;28;20058;-57
2022/05/14 08:05:03;;;;;;;22.65;6.13;;;25.30;69.20;;;;;;5014139;28;20077;-57
2022/05/14 08:07:29;;;;;;;20.42;6.00;;;25.40;68.80;;;;;;5013872;28;20038;-57
2022/05/14 08:09:55;;;;;;;16.98;6.00;;;;;;;;;;5013757;28;20034;-57
2022/05/14 08:12:21;;;;;;;23.05;5.97;;;;;;;;;;5013817;28;20064;-57
2022/05/14 08:14:47;;;;;;;19.20;5.53;;;25.40;69.50;;;;;;5013783;28;20046;-59
2022/05/14 08:17:13;;;;;;;22.05;6.05;;;;;;;;;;5013714;28;20034;-59
2022/05/14 08:19:39;;;;;;;21.77;6.00;;;25.80;70.10;;;;;;5012861;28;20041;-59
2022/05/14 08:24:49;;;;;;;24.33;5.68;;;25.00;68.70;;;;;;5013408;28;20052;-59
2022/05/14 08:27:16;;;;;;;20.05;5.82;;;;;;;;;;5012800;28;20485;-59
2022/05/14 08:29:45;;;;;;;20.05;5.70;;;24.90;67.90;;;;;;5012997;28;20499;-59
2022/05/14 08:32:11;;;;;;;18.92;5.13;;;24.40;57.70;;;;;;5013599;28;20029;-59
2022/05/14 08:34:37;;;;;;;22.88;5.53;;;23.90;68.50;;;;;;5031003;28;20029;-58
2022/05/14 08:37:03;;;;;;;21.70;5.90;;;23.70;68.90;;;;;;5032558;28;20076;-58
2022/05/14 08:39:29;;;;;;;26.83;5.85;;;24.70;64.00;;;;;;5031012;28;20508;-58
2022/05/14 08:41:56;;;;;;;17.13;5.05;;;24.20;68.10;;;;;;5032834;28;20037;-58
2022/05/14 08:44:30;;;;;;;21.10;5.43;;;24.40;60.60;;;;;;5032752;28;20041;-58
2022/05/14 08:47:04;;;;;;;26.85;6.30;;;24.60;68.50;;;;;;5032484;28;20052;-59
2022/05/14 08:49:32;;;;;;;22.70;5.50;;;24.60;69.00;;;;;;5032684;28;20041;-59
2022/05/14 08:51:59;;;;;;;24.65;5.72;;;23.60;67.60;;;;;;5033175;28;20608;-59
2022/05/14 08:54:26;;;;;;;19.10;4.97;;;24.40;67.30;;;;;;5032695;28;20045;-59
2022/05/14 08:57:17;;;;;;;23.13;5.50;;;23.90;67.30;;;;;;5032616;28;20049;-59
2022/05/14 08:59:55;;;;;;;18.98;4.95;;;24.10;67.00;;;;;;5032677;28;20045;-59
2022/05/14 09:02:40;;;;;;;26.88;5.43;;;24.00;55.00;;;;;;5032717;28;20144;-59
2022/05/14 09:05:19;;;;;;;22.88;5.63;;;24.20;67.80;;;;;;5032496;28;20076;-59
2022/05/14 09:07:45;;;;;;;20.73;5.18;;;23.60;60.40;;;;;;5032725;28;20443;-59
2022/05/14 09:10:23;;;;;;;20.80;4.60;;;23.40;66.80;;;;;;5032752;28;20038;-59
2022/05/14 09:12:53;;;;;;;23.35;5.18;;;22.50;68.50;;;;;;5031907;28;20228;-59
2022/05/14 09:15:21;;;;;;;20.85;4.57;;;22.20;57.90;;;;;;5032726;28;20072;-59
2022/05/14 09:17:46;;;;;;;19.48;4.80;;;22.40;69.80;;;;;;5032299;28;20132;-59
2022/05/14 09:20:23;;;;;;;19.50;4.60;;;22.00;69.80;;;;;;5031410;28;20120;-59
2022/05/14 09:22:55;;;;;;;17.10;4.80;;;22.30;55.50;;;;;;5032889;28;20041;-59
2022/05/14 09:25:34;;;;;;;19.27;5.30;;;22.40;68.70;;;;;;5032722;28;20163;-59
2022/05/14 09:28:05;;;;;;;24.50;5.57;;;22.70;68.70;;;;;;5032810;28;20124;-59
2022/05/14 09:30:52;;;;;;;20.45;4.90;;;22.80;68.40;;;;;;5032386;28;20113;-59
2022/05/14 09:33:27;;;;;;;21.30;5.00;;;22.70;69.30;;;;;;5032345;28;20044;-59
2022/05/14 09:35:59;;;;;;;22.25;5.38;;;22.90;69.50;;;;;;5032380;28;20049;-59
2022/05/14 09:38:25;;;;;;;20.13;5.18;;;21.70;68.40;;;;;;5031349;28;20036;-59
2022/05/14 09:41:06;;;;;;;18.48;4.80;;;22.90;69.30;;;;;;5028894;28;20449;-59
2022/05/14 09:43:35;;;;;;;28.25;4.90;;;23.00;68.50;;;;;;5031011;28;20525;-59
2022/05/14 09:46:10;;;;;;;18.65;5.28;;;22.50;69.80;;;;;;5031125;28;20049;-59
2022/05/14 09:48:36;;;;;;;17.13;4.90;;;;;;;;;;5028606;28;20037;-59
2022/05/14 09:51:08;;;;;;;16.90;4.60;;;21.80;69.30;;;;;;5031240;28;20033;-59
2022/05/14 09:53:41;;;;;;;21.63;4.97;;;22.10;69.70;;;;;;5029408;28;20179;-59
2022/05/14 09:56:09;;;;;;;16.15;4.68;;;22.20;70.20;;;;;;5031684;28;20037;-59
2022/05/14 09:59:00;;;;;;;15.20;4.65;;;22.70;69.90;;;;;;5031238;28;20049;-59
2022/05/14 10:01:50;;;;;;;26.38;4.80;;;22.30;69.60;;;;;;5030026;28;20499;-59
2022/05/14 10:04:53;;;;;;;19.83;4.57;;;22.10;69.70;;;;;;5031555;28;20049;-59
2022/05/14 10:07:28;;;;;;;20.13;4.93;;;22.10;69.60;;;;;;5030871;28;20084;-59
2022/05/14 10:10:22;;;;;;;20.30;5.20;;;22.00;70.40;;;;;;5030487;28;20484;-59
2022/05/14 10:13:25;;;;;;;20.58;4.90;;;22.20;69.50;;;;;;5031674;28;20420;-59
2022/05/14 10:16:03;;;;;;;18.25;5.07;;;22.10;69.50;;;;;;5007662;28;20076;-59
2022/05/14 10:18:50;;;;;;;18.95;4.70;;;22.30;68.80;;;;;;5030618;28;20041;-59
2022/05/14 10:21:50;;;;;;;17.17;5.00;;;22.00;61.80;;;;;;5031272;28;20033;-59
2022/05/14 10:28:05;;;;;;;20.90;5.40;;;22.00;71.20;;;;;;5030595;28;20091;-58
2022/05/14 10:30:58;;;;;;;19.10;4.82;;;22.10;70.20;;;;;;5030139;28;20434;-59
2022/05/14 10:33:26;;;;;;;20.15;4.80;;;22.00;57.60;;;;;;5030652;28;20476;-58
2022/05/14 10:36:02;;;;;;;19.92;5.10;;;21.80;69.90;;;;;;5031096;28;20431;-58
2022/05/14 10:38:45;;;;;;;22.98;5.00;;;21.80;57.90;;;;;;5029033;28;20487;-59
2022/05/14 10:41:11;;;;;;;23.75;5.30;;;22.00;71.00;;;;;;5031241;28;20133;-59
2022/05/14 10:44:09;;;;;;;31.45;5.00;;;22.10;62.50;;;;;;5030818;28;20041;-58
2022/05/14 10:46:38;;;;;;;23.13;5.10;;;22.30;71.40;;;;;;5030566;28;20042;-64
2022/05/14 10:49:30;;;;;;;20.95;5.07;;;22.40;70.50;;;;;;5030083;28;20065;-63
2022/05/14 10:51:56;;;;;;;20.40;4.90;;;22.20;70.10;;;;;;5030693;28;20049;-63
2022/05/14 10:54:24;;;;;;;17.08;4.65;;;22.30;69.50;;;;;;5030773;28;20040;-63
2022/05/14 10:56:56;;;;;;;17.60;4.50;;;22.50;69.90;;;;;;5030785;28;20049;-63
2022/05/14 10:59:35;;;;;;;22.17;5.13;;;22.30;57.60;;;;;;5029746;28;20045;-63
2022/05/14 11:02:12;;;;;;;17.85;4.63;;;22.00;69.80;;;;;;5029195;28;20516;-63
2022/05/14 11:04:40;;;;;;;23.80;5.07;;;22.00;70.20;;;;;;5030755;28;20041;-63
2022/05/14 11:07:06;;;;;;;21.08;4.88;;;22.00;70.30;;;;;;5030608;28;20099;-63
2022/05/14 11:09:34;;;;;;;19.08;4.70;;;22.10;70.20;;;;;;5029379;28;20492;-63
2022/05/14 11:12:14;;;;;;;19.65;4.32;;;22.00;70.00;;;;;;5030273;28;20051;-63
2022/05/14 11:14:50;;;;;;;22.73;5.38;;;22.10;71.00;;;;;;5030027;28;20048;-64
2022/05/14 11:17:16;;;;;;;21.65;4.88;;;22.00;70.20;;;;;;5029558;28;20385;-64
2022/05/14 11:19:42;;;;;;;18.88;4.78;;;22.00;70.30;;;;;;5030270;28;20096;-64
2022/05/14 11:22:23;;;;;;;19.52;5.35;;;22.70;69.20;;;;;;5030413;28;20095;-64
2022/05/14 11:24:50;;;;;;;19.88;4.70;;;22.50;68.60;;;;;;5030685;28;20049;-64
2022/05/14 11:27:34;;;;;;;18.48;4.95;;;22.40;68.30;;;;;;5030322;28;20042;-65
2022/05/14 11:30:05;;;;;;;22.90;5.25;;;23.30;68.40;;;;;;5030576;28;20038;-61
2022/05/14 11:32:52;;;;;;;19.65;4.85;;;22.80;67.30;;;;;;5030311;28;20076;-61
2022/05/14 11:35:18;;;;;;;22.02;4.75;;;22.20;66.60;;;;;;5029103;28;20077;-61
2022/05/14 11:37:48;;;;;;;22.85;4.88;;;22.70;55.60;;;;;;5030137;28;20579;-61
2022/05/14 11:40:18;;;;;;;19.75;4.60;;;23.40;69.20;;;;;;5030304;28;20138;-66
2022/05/14 11:42:47;;;;;;;19.05;4.80;;;22.60;68.40;;;;;;5030181;28;20041;-66
2022/05/14 11:45:28;;;;;;;20.08;4.38;;;22.60;68.00;;;;;;5030259;28;20060;-66
2022/05/14 11:48:09;;;;;;;17.10;4.25;;;22.80;67.80;;;;;;5030226;28;20045;-66
2022/05/14 11:51:14;;;;;;;17.70;4.50;;;23.00;67.30;;;;;;5030211;28;20045;-66
2022/05/14 11:53:45;;;;;;;19.25;4.55;;;23.30;65.90;;;;;;5029509;28;20042;-66
2022/05/14 11:56:19;;;;;;;16.55;4.43;;;23.30;66.00;;;;;;5030223;28;20045;-66
2022/05/14 11:58:55;;;;;;;17.13;5.03;;;23.40;64.60;;;;;;5030093;28;20049;-66
2022/05/14 12:01:28;;;;;;;17.58;4.53;;;24.30;65.00;;;;;;5029232;28;20049;-65
2022/05/14 12:03:54;;;;;;;16.13;4.68;;;24.30;64.00;;;;;;5033330;28;20504;-66
2022/05/14 12:07:18;;;;;;;17.80;4.38;;;23.50;62.90;;;;;;5032394;28;20049;-66
2022/05/14 12:09:49;;;;;;;19.40;4.78;;;24.40;62.10;;;;;;4955854;28;20043;-66
2022/05/14 12:12:38;;;;;;;22.17;4.93;;;24.10;62.30;;;;;;4971978;28;20423;-67
2022/05/14 12:15:14;;;;;;;14.57;4.65;;;23.50;61.90;;;;;;4966694;28;20542;-67
2022/05/14 12:17:49;;;;;;;18.23;4.68;;;23.90;63.50;;;;;;4956252;28;20462;-67
2022/05/14 12:20:25;;;;;;;19.75;4.65;;;24.00;64.40;;;;;;4972175;28;20043;-66
2022/05/14 12:22:59;;;;;;;22.58;4.80;;;23.80;62.30;;;;;;4972119;28;20057;-66
2022/05/14 12:25:38;;;;;;;17.63;4.47;;;23.70;60.50;;;;;;4971668;28;20125;-67
2022/05/14 12:28:05;;;;;;;18.58;4.50;;;23.50;59.20;;;;;;4971717;28;20225;-66
2022/05/14 12:33:21;;;;;;;15.15;4.32;;;24.10;61.20;;;;;;4955719;28;20042;-66
2022/05/14 12:35:56;;;;;;;19.33;4.82;;;23.20;55.40;;;;;;4971997;28;20101;-67
2022/05/14 12:38:42;;;;;;;21.13;4.97;;;22.50;61.60;;;;;;4954788;28;20237;-66
2022/05/14 12:41:21;;;;;;;17.58;4.45;;;23.50;62.70;;;;;;4971023;28;20046;-67
2022/05/14 12:43:47;;;;;;;21.58;5.07;;;23.20;63.40;;;;;;5005528;28;20055;-67
2022/05/14 12:46:13;;;;;;;18.02;4.90;;;23.10;62.90;;;;;;5032493;28;20042;-67
2022/05/14 12:48:49;;;;;;;20.90;5.25;;;22.80;63.60;;;;;;5032737;28;20056;-67
2022/05/14 12:51:22;;;;;;;19.80;4.78;;;22.70;64.10;;;;;;5032684;28;20077;-67
2022/05/14 12:53:49;;;;;;;19.20;4.82;;;22.60;52.90;;;;;;5031440;28;20056;-67
2022/05/14 12:56:17;;;;;;;20.75;4.72;;;22.60;64.30;;;;;;5032276;28;20114;-67
2022/05/14 12:58:43;;;;;;;21.40;4.50;;;22.50;52.40;;;;;;5032453;28;20041;-67
2022/05/14 13:01:11;;;;;;;16.20;4.80;;;22.50;64.80;;;;;;5032138;28;20064;-67
2022/05/14 13:03:39;;;;;;;20.30;5.07;;;22.90;52.50;;;;;;5032292;28;20050;-67
2022/05/14 13:06:20;;;;;;;18.13;4.55;;;23.10;62.10;;;;;;5032676;28;20053;-67
2022/05/14 13:08:53;;;;;;;17.77;4.68;;;22.90;62.70;;;;;;5030642;28;20068;-67
2022/05/14 13:11:24;;;;;;;20.05;4.55;;;23.10;62.50;;;;;;5047855;28;20052;-66
2022/05/14 13:13:54;;;;;;;20.70;5.05;;;23.80;62.50;;;;;;5030541;28;20034;-67
2022/05/14 13:16:23;;;;;;;17.42;4.60;;;23.20;63.50;;;;;;5032144;28;20121;-67
2022/05/14 13:18:55;;;;;;;14.82;4.20;;;22.90;64.20;;;;;;5032284;28;20535;-67
2022/05/14 13:21:24;;;;;;;20.20;4.82;;;22.90;52.40;;;;;;5032239;28;20558;-67
2022/05/14 13:24:05;;;;;;;17.67;4.53;;;23.20;63.20;;;;;;5031745;28;20531;-67
2022/05/14 13:26:41;;;;;;;20.95;4.78;;;24.20;62.10;;;;;;5030320;28;20041;-67
2022/05/14 13:29:10;;;;;;;21.17;5.10;;;24.10;60.70;;;;;;5032033;28;20252;-67
2022/05/14 13:31:36;;;;;;;12.52;4.07;;;24.20;54.10;;;;;;5032048;28;20393;-67